Share

Altha, FL

4:18 PM CDT on April 23, 2014 (GMT -0500)
KFLBLOUN2 Elev 76 ft | 30.52 °N, 85.04 °W | Change Station
Active Advisory: Flood Warning

Current weather conditions updated 41 minutes ago

Clear
Clear
85.1 °F
Feels Like 87 °F
N
1.0
Wind Variable Wind from NW
Gusts 4.0 mph
Sunrise 6:04 AM
Sunset 7:13 PM
Moon Waning Crescent

Tomorrow is forecast to be nearly the same temperature as today.

Pressure 29.87 in
Visibility 10.0 miles
Clouds Clear
Heat Index 87 °F
Dew Point 66 °F
Humidity 53%
Rainfall 0.00 in
Snow Depth Not available.
UV 6 out of 16
Pollen 8.20 out of 12
Air Quality Not available.
Flu Activity Sporadic
METAR KMAI 232053Z AUTO 28004KT 10SM CLR 29/14 A2987 RMK AO2 SLP114 T02890139 56018 PWINO

More Conditions Fewer Conditions

Pressure 29.87 in
Visibility 10.0 miles
Clouds Clear
Heat Index 87 °F
Dew Point 66 °F
Humidity 53%
Rainfall 0.00 in
Snow Depth Not available.
UV 6 out of 16
Pollen 8.20 out of 12
Air Quality Not available.
Flu Activity Sporadic
METAR KMAI 232053Z AUTO 28004KT 10SM CLR 29/14 A2987 RMK AO2 SLP114 T02890139 56018 PWINO

More Conditions Fewer Conditions

10-Day Weather Forecast

Almanac

Astronomy

Apr. 23, 2014 Rise Set
Actual Time 6:04 AM CDT 7:13 PM CDT
Civil Twilight 5:39 AM CDT 7:38 PM CDT
Nautical Twilight 5:10 AM CDT 8:08 PM CDT
Astronomical Twilight 4:39 AM CDT 8:39 PM CDT
Moon 2:10 AM CDT 1:45 PM CDT
Length of Visible Light 13h 59m
Length of Day
13h 08m
Tomorrow will be 1m 40s longer.
Waning Crescent, 33% of the Moon is Illuminated
Today
Waning Crescent
Apr 29
New
May 6
First Quarter
May 14
Full
May 21
Last Quarter

Today's Extremes

State Highs State Lows

Community

  • Stunning Sunrise
    Stunning Sunrise
  • spring flowers
    spring flowers
  • Earth Day Spectrum Ove' Blue
    Earth Day Spectrum Ove' Blue
  • BARN B&W
    BARN B&W
  • April Sunset
    April Sunset

WunderPhotos

Upload Photos

1,704,412 photos uploaded!

WunderBlogs® & News

Nearby

Snow Depth

Station Depth Elevation
No new snow has been reported.

Coastal Water Temperatures

Place Temperature
Panama City, FL 72.0 °F
Panama City Beach, FL 68.0 °F
Apalachicola, FL 66.0 °F

Earthquake Activity

City Distance Mag. Time & Date
No recent earthquake activity has been reported nearby.
Minimum magnitude displayed is 2.5.

Nearby Weather Stations

Station Location Temp. Heat Index Dew Point Humidity Wind Precip. Elev Updated Type
Blountstown, FL 85.1 °F 87 °F 66 °F 53% NW  at  1.0 mph 0.00 in / hr 76 ft 3:36 PM CDT Rapid Fire
Cypress, Marianna, FL 86.2 °F 89 °F 67 °F 54% WNW  at  1.9 mph 0.00 in / hr 138 ft 4:18 PM CDT Rapid Fire
Silver Lake Road, Fountain, FL 85.3 °F 82 °F 29 °F 13% WNW  at  5.4 mph 0.00 in / hr 178 ft 4:18 PM EST Rapid Fire

Show More Stations Show Fewer Stations

What do you think?

We're not finished. Please let us know what you like, what you don't like, and what you are still missing.